sensor_id;sensor_type;location;lat;lon;timestamp;pressure;altitude;pressure_sealevel;temperature;humidity
33506;BME280;19843;51.040;13.782;2023-02-03T00:00:28;101050.91;;;3.90;94.33
33506;BME280;19843;51.040;13.782;2023-02-03T00:02:57;101049.59;;;4.05;94.04
33506;BME280;19843;51.040;13.782;2023-02-03T00:05:25;101046.88;;;4.06;92.81
33506;BME280;19843;51.040;13.782;2023-02-03T00:07:52;101051.41;;;4.03;93.02
33506;BME280;19843;51.040;13.782;2023-02-03T00:10:20;101044.22;;;4.06;93.15
33506;BME280;19843;51.040;13.782;2023-02-03T00:12:49;101039.69;;;4.10;93.57
33506;BME280;19843;51.040;13.782;2023-02-03T00:15:18;101051.16;;;4.12;93.81
33506;BME280;19843;51.040;13.782;2023-02-03T00:17:45;101039.75;;;4.08;93.41
33506;BME280;19843;51.040;13.782;2023-02-03T00:20:13;101032.72;;;4.07;94.03
33506;BME280;19843;51.040;13.782;2023-02-03T00:22:40;101029.25;;;4.04;94.16
33506;BME280;19843;51.040;13.782;2023-02-03T00:25:07;101027.56;;;4.01;94.29
33506;BME280;19843;51.040;13.782;2023-02-03T00:27:35;101028.50;;;4.00;94.40
33506;BME280;19843;51.040;13.782;2023-02-03T00:30:04;101033.56;;;4.08;94.04
33506;BME280;19843;51.040;13.782;2023-02-03T00:32:32;101037.03;;;4.10;94.12
33506;BME280;19843;51.040;13.782;2023-02-03T00:35:00;101026.44;;;4.10;94.27
33506;BME280;19843;51.040;13.782;2023-02-03T00:37:28;101021.03;;;4.13;94.51
33506;BME280;19843;51.040;13.782;2023-02-03T00:39:55;101022.84;;;4.11;95.11
33506;BME280;19843;51.040;13.782;2023-02-03T00:42:23;101013.13;;;4.11;95.21
33506;BME280;19843;51.040;13.782;2023-02-03T00:44:50;101008.84;;;4.06;96.04
33506;BME280;19843;51.040;13.782;2023-02-03T00:47:19;101011.75;;;4.26;95.24
33506;BME280;19843;51.040;13.782;2023-02-03T00:49:46;101001.44;;;4.17;95.32
33506;BME280;19843;51.040;13.782;2023-02-03T00:52:15;100993.47;;;4.17;95.58
33506;BME280;19843;51.040;13.782;2023-02-03T00:54:43;100993.66;;;4.11;96.05
33506;BME280;19843;51.040;13.782;2023-02-03T00:57:10;100991.09;;;4.08;96.35
33506;BME280;19843;51.040;13.782;2023-02-03T00:59:38;100983.34;;;4.30;95.50
33506;BME280;19843;51.040;13.782;2023-02-03T01:02:05;100977.22;;;4.28;95.33
33506;BME280;19843;51.040;13.782;2023-02-03T01:04:34;100966.81;;;4.20;95.70
33506;BME280;19843;51.040;13.782;2023-02-03T01:07:01;100960.50;;;4.24;95.75
33506;BME280;19843;51.040;13.782;2023-02-03T01:09:32;100960.31;;;4.30;95.69
33506;BME280;19843;51.040;13.782;2023-02-03T01:11:59;100958.06;;;4.18;96.19
33506;BME280;19843;51.040;13.782;2023-02-03T01:14:27;100948.34;;;4.17;96.24
33506;BME280;19843;51.040;13.782;2023-02-03T01:16:54;100943.91;;;4.17;96.38
33506;BME280;19843;51.040;13.782;2023-02-03T01:19:22;100940.19;;;4.23;96.42
33506;BME280;19843;51.040;13.782;2023-02-03T01:21:50;100926.22;;;4.18;96.07
33506;BME280;19843;51.040;13.782;2023-02-03T01:24:18;100923.44;;;4.21;96.00
33506;BME280;19843;51.040;13.782;2023-02-03T01:26:45;100909.53;;;4.13;95.79
33506;BME280;19843;51.040;13.782;2023-02-03T01:29:13;100903.84;;;4.25;95.86
33506;BME280;19843;51.040;13.782;2023-02-03T01:31:41;100901.56;;;4.13;96.21
33506;BME280;19843;51.040;13.782;2023-02-03T01:34:11;100897.81;;;4.20;95.59
33506;BME280;19843;51.040;13.782;2023-02-03T01:36:39;100892.38;;;4.25;95.29
33506;BME280;19843;51.040;13.782;2023-02-03T01:39:09;100883.66;;;4.19;95.57
33506;BME280;19843;51.040;13.782;2023-02-03T01:41:37;100880.28;;;4.16;96.17
33506;BME280;19843;51.040;13.782;2023-02-03T01:44:34;100870.19;;;4.26;96.01
33506;BME280;19843;51.040;13.782;2023-02-03T01:47:08;100875.31;;;4.32;95.44
33506;BME280;19843;51.040;13.782;2023-02-03T01:49:38;100877.31;;;4.25;96.04
33506;BME280;19843;51.040;13.782;2023-02-03T01:52:08;100876.56;;;4.20;95.95
33506;BME280;19843;51.040;13.782;2023-02-03T01:54:38;100878.00;;;4.30;96.08
33506;BME280;19843;51.040;13.782;2023-02-03T01:57:10;100875.78;;;4.18;95.87
33506;BME280;19843;51.040;13.782;2023-02-03T01:59:39;100877.09;;;4.05;96.63
33506;BME280;19843;51.040;13.782;2023-02-03T02:02:07;100856.06;;;3.98;97.33
33506;BME280;19843;51.040;13.782;2023-02-03T02:04:47;100851.94;;;3.88;98.02
33506;BME280;19843;51.040;13.782;2023-02-03T02:07:16;100850.47;;;3.80;98.15
33506;BME280;19843;51.040;13.782;2023-02-03T02:09:45;100842.22;;;3.89;97.74
33506;BME280;19843;51.040;13.782;2023-02-03T02:12:13;100836.63;;;3.98;97.98
33506;BME280;19843;51.040;13.782;2023-02-03T02:14:41;100816.13;;;4.02;97.83
33506;BME280;19843;51.040;13.782;2023-02-03T02:17:16;100808.53;;;4.17;96.44
33506;BME280;19843;51.040;13.782;2023-02-03T02:20:04;100801.78;;;4.09;96.66
33506;BME280;19843;51.040;13.782;2023-02-03T02:22:50;100804.34;;;4.10;97.26
33506;BME280;19843;51.040;13.782;2023-02-03T02:25:46;100793.69;;;4.12;96.93
33506;BME280;19843;51.040;13.782;2023-02-03T02:28:48;100803.63;;;4.07;97.33
33506;BME280;19843;51.040;13.782;2023-02-03T02:31:50;100794.72;;;4.08;97.58
33506;BME280;19843;51.040;13.782;2023-02-03T02:34:23;100792.88;;;4.10;97.97
33506;BME280;19843;51.040;13.782;2023-02-03T02:36:59;100795.03;;;3.98;98.33
33506;BME280;19843;51.040;13.782;2023-02-03T02:39:37;100774.78;;;3.96;98.78
33506;BME280;19843;51.040;13.782;2023-02-03T02:42:09;100769.31;;;4.01;98.78
33506;BME280;19843;51.040;13.782;2023-02-03T02:44:43;100753.56;;;3.96;99.20
33506;BME280;19843;51.040;13.782;2023-02-03T02:47:16;100761.75;;;3.88;99.75
33506;BME280;19843;51.040;13.782;2023-02-03T02:49:50;100743.41;;;3.82;100.00
33506;BME280;19843;51.040;13.782;2023-02-03T02:52:20;100760.66;;;3.95;100.00
33506;BME280;19843;51.040;13.782;2023-02-03T02:54:51;100746.28;;;4.01;99.61
33506;BME280;19843;51.040;13.782;2023-02-03T02:57:23;100736.38;;;4.06;99.77
33506;BME280;19843;51.040;13.782;2023-02-03T02:59:52;100732.16;;;4.01;100.00
33506;BME280;19843;51.040;13.782;2023-02-03T03:02:21;100723.88;;;4.10;99.64
33506;BME280;19843;51.040;13.782;2023-02-03T03:04:49;100713.38;;;4.07;99.75
33506;BME280;19843;51.040;13.782;2023-02-03T03:07:21;100700.13;;;4.07;99.51
33506;BME280;19843;51.040;13.782;2023-02-03T03:09:52;100701.88;;;4.06;100.00
33506;BME280;19843;51.040;13.782;2023-02-03T03:12:23;100685.88;;;4.09;100.00
33506;BME280;19843;51.040;13.782;2023-02-03T03:14:55;100690.44;;;4.04;100.00
33506;BME280;19843;51.040;13.782;2023-02-03T03:17:28;100681.22;;;4.16;100.00
33506;BME280;19843;51.040;13.782;2023-02-03T03:20:01;100683.03;;;4.14;100.00
33506;BME280;19843;51.040;13.782;2023-02-03T03:22:33;100676.09;;;4.10;100.00
33506;BME280;19843;51.040;13.782;2023-02-03T03:25:08;100665.63;;;4.07;100.00
33506;BME280;19843;51.040;13.782;2023-02-03T03:27:41;100663.88;;;4.06;100.00
33506;BME280;19843;51.040;13.782;2023-02-03T03:30:15;100662.63;;;4.16;100.00
33506;BME280;19843;51.040;13.782;2023-02-03T03:32:45;100668.28;;;4.30;100.00
33506;BME280;19843;51.040;13.782;2023-02-03T03:35:13;100665.94;;;4.23;100.00
33506;BME280;19843;51.040;13.782;2023-02-03T03:37:42;100667.66;;;4.24;100.00
33506;BME280;19843;51.040;13.782;2023-02-03T03:40:17;100662.59;;;4.41;99.98
33506;BME280;19843;51.040;13.782;2023-02-03T03:42:49;100662.63;;;4.39;99.94
33506;BME280;19843;51.040;13.782;2023-02-03T03:45:21;100650.03;;;4.45;100.00
33506;BME280;19843;51.040;13.782;2023-02-03T03:47:55;100655.81;;;4.32;100.00
33506;BME280;19843;51.040;13.782;2023-02-03T03:50:27;100654.97;;;4.32;100.00
33506;BME280;19843;51.040;13.782;2023-02-03T03:52:59;100649.41;;;4.38;100.00
33506;BME280;19843;51.040;13.782;2023-02-03T03:55:30;100646.53;;;4.44;100.00
33506;BME280;19843;51.040;13.782;2023-02-03T03:58:02;100655.81;;;4.32;100.00
33506;BME280;19843;51.040;13.782;2023-02-03T04:00:33;100644.84;;;4.42;100.00
33506;BME280;19843;51.040;13.782;2023-02-03T04:03:06;100629.56;;;4.48;100.00
33506;BME280;19843;51.040;13.782;2023-02-03T04:05:37;100622.00;;;4.61;100.00
33506;BME280;19843;51.040;13.782;2023-02-03T04:08:05;100609.00;;;4.53;100.00
33506;BME280;19843;51.040;13.782;2023-02-03T04:10:34;100585.28;;;4.49;100.00
33506;BME280;19843;51.040;13.782;2023-02-03T04:13:03;100580.63;;;4.54;100.00
33506;BME280;19843;51.040;13.782;2023-02-03T04:15:31;100575.34;;;4.54;100.00
33506;BME280;19843;51.040;13.782;2023-02-03T04:17:59;100564.47;;;4.60;100.00
33506;BME280;19843;51.040;13.782;2023-02-03T04:20:29;100555.91;;;4.97;100.00
33506;BME280;19843;51.040;13.782;2023-02-03T04:22:57;100553.19;;;5.19;100.00
33506;BME280;19843;51.040;13.782;2023-02-03T04:25:25;100538.97;;;5.41;100.00
33506;BME280;19843;51.040;13.782;2023-02-03T04:27:53;100539.41;;;5.71;100.00
33506;BME280;19843;51.040;13.782;2023-02-03T04:30:21;100528.66;;;5.93;100.00
33506;BME280;19843;51.040;13.782;2023-02-03T04:32:49;100533.19;;;6.12;100.00
33506;BME280;19843;51.040;13.782;2023-02-03T04:35:17;100526.19;;;6.28;100.00
33506;BME280;19843;51.040;13.782;2023-02-03T04:37:46;100530.00;;;6.41;100.00
33506;BME280;19843;51.040;13.782;2023-02-03T04:40:13;100529.28;;;6.38;100.00
33506;BME280;19843;51.040;13.782;2023-02-03T04:42:41;100528.69;;;6.50;100.00
33506;BME280;19843;51.040;13.782;2023-02-03T04:45:10;100543.22;;;6.62;100.00
33506;BME280;19843;51.040;13.782;2023-02-03T04:47:38;100528.59;;;6.52;100.00
33506;BME280;19843;51.040;13.782;2023-02-03T04:50:06;100520.19;;;6.61;100.00
33506;BME280;19843;51.040;13.782;2023-02-03T04:52:34;100529.44;;;6.71;100.00
33506;BME280;19843;51.040;13.782;2023-02-03T04:55:03;100524.34;;;6.66;100.00
33506;BME280;19843;51.040;13.782;2023-02-03T04:57:30;100530.53;;;6.67;100.00
33506;BME280;19843;51.040;13.782;2023-02-03T04:59:58;100526.16;;;6.66;100.00
33506;BME280;19843;51.040;13.782;2023-02-03T05:02:25;100526.44;;;6.60;100.00
33506;BME280;19843;51.040;13.782;2023-02-03T05:04:52;100531.28;;;6.52;100.00
33506;BME280;19843;51.040;13.782;2023-02-03T05:07:20;100530.41;;;6.70;100.00
33506;BME280;19843;51.040;13.782;2023-02-03T05:09:47;100524.97;;;6.54;100.00
33506;BME280;19843;51.040;13.782;2023-02-03T05:12:16;100525.53;;;6.61;100.00
33506;BME280;19843;51.040;13.782;2023-02-03T05:14:43;100521.84;;;6.63;100.00
33506;BME280;19843;51.040;13.782;2023-02-03T05:17:11;100516.75;;;6.59;100.00
33506;BME280;19843;51.040;13.782;2023-02-03T05:19:38;100501.00;;;6.72;100.00
33506;BME280;19843;51.040;13.782;2023-02-03T05:22:06;100504.16;;;6.80;100.00
33506;BME280;19843;51.040;13.782;2023-02-03T05:24:33;100498.31;;;6.72;100.00
33506;BME280;19843;51.040;13.782;2023-02-03T05:27:00;100495.31;;;6.79;100.00
33506;BME280;19843;51.040;13.782;2023-02-03T05:29:29;100486.59;;;6.76;99.96
33506;BME280;19843;51.040;13.782;2023-02-03T05:31:56;100487.16;;;6.82;99.81
33506;BME280;19843;51.040;13.782;2023-02-03T05:34:24;100473.19;;;6.95;98.60
33506;BME280;19843;51.040;13.782;2023-02-03T05:36:52;100468.97;;;6.90;98.67
33506;BME280;19843;51.040;13.782;2023-02-03T05:39:19;100458.31;;;6.90;98.36
33506;BME280;19843;51.040;13.782;2023-02-03T05:41:47;100465.28;;;6.93;98.01
33506;BME280;19843;51.040;13.782;2023-02-03T05:44:24;100462.69;;;6.92;97.92
33506;BME280;19843;51.040;13.782;2023-02-03T05:46:55;100487.69;;;6.89;98.34
33506;BME280;19843;51.040;13.782;2023-02-03T05:49:23;100471.63;;;6.90;97.71
33506;BME280;19843;51.040;13.782;2023-02-03T05:51:52;100471.06;;;7.01;96.71
33506;BME280;19843;51.040;13.782;2023-02-03T05:54:20;100477.97;;;7.05;95.57
33506;BME280;19843;51.040;13.782;2023-02-03T05:56:48;100484.09;;;7.07;95.73
33506;BME280;19843;51.040;13.782;2023-02-03T05:59:15;100486.75;;;7.07;95.52
33506;BME280;19843;51.040;13.782;2023-02-03T06:01:43;100489.34;;;7.09;95.43
33506;BME280;19843;51.040;13.782;2023-02-03T06:04:11;100486.47;;;7.14;95.51
33506;BME280;19843;51.040;13.782;2023-02-03T06:06:39;100479.31;;;7.14;95.00
33506;BME280;19843;51.040;13.782;2023-02-03T06:09:07;100477.50;;;7.15;95.28
33506;BME280;19843;51.040;13.782;2023-02-03T06:11:35;100479.25;;;7.16;95.54
33506;BME280;19843;51.040;13.782;2023-02-03T06:14:03;100495.25;;;7.16;96.35
33506;BME280;19843;51.040;13.782;2023-02-03T06:16:30;100478.03;;;7.21;96.66
33506;BME280;19843;51.040;13.782;2023-02-03T06:18:58;100477.44;;;7.16;96.55
33506;BME280;19843;51.040;13.782;2023-02-03T06:21:28;100478.13;;;7.20;97.08
33506;BME280;19843;51.040;13.782;2023-02-03T06:23:55;100465.13;;;7.14;97.25
33506;BME280;19843;51.040;13.782;2023-02-03T06:26:23;100449.25;;;7.28;96.74
33506;BME280;19843;51.040;13.782;2023-02-03T06:28:51;100449.75;;;7.19;97.11
33506;BME280;19843;51.040;13.782;2023-02-03T06:31:18;100447.47;;;7.11;96.85
33506;BME280;19843;51.040;13.782;2023-02-03T06:33:46;100445.19;;;7.21;96.17
33506;BME280;19843;51.040;13.782;2023-02-03T06:36:13;100438.91;;;7.22;96.66
33506;BME280;19843;51.040;13.782;2023-02-03T06:38:42;100449.31;;;7.26;95.02
33506;BME280;19843;51.040;13.782;2023-02-03T06:41:10;100449.19;;;7.29;94.81
33506;BME280;19843;51.040;13.782;2023-02-03T06:43:37;100426.22;;;7.27;94.31
33506;BME280;19843;51.040;13.782;2023-02-03T06:46:04;100442.09;;;7.28;94.33
33506;BME280;19843;51.040;13.782;2023-02-03T06:48:32;100436.47;;;7.35;94.32
33506;BME280;19843;51.040;13.782;2023-02-03T06:50:59;100429.16;;;7.38;94.39
33506;BME280;19843;51.040;13.782;2023-02-03T06:53:27;100420.13;;;7.41;95.50
33506;BME280;19843;51.040;13.782;2023-02-03T06:55:55;100408.22;;;7.30;96.59
33506;BME280;19843;51.040;13.782;2023-02-03T06:58:23;100414.81;;;7.23;96.87
33506;BME280;19843;51.040;13.782;2023-02-03T07:00:54;100409.41;;;7.25;97.76
33506;BME280;19843;51.040;13.782;2023-02-03T07:03:21;100399.78;;;7.22;96.93
33506;BME280;19843;51.040;13.782;2023-02-03T07:05:49;100389.88;;;7.24;96.51
33506;BME280;19843;51.040;13.782;2023-02-03T07:08:16;100377.41;;;7.25;96.27
33506;BME280;19843;51.040;13.782;2023-02-03T07:10:43;100376.53;;;7.24;95.73
33506;BME280;19843;51.040;13.782;2023-02-03T07:13:12;100381.78;;;7.26;95.67
33506;BME280;19843;51.040;13.782;2023-02-03T07:15:40;100373.97;;;7.23;95.73
33506;BME280;19843;51.040;13.782;2023-02-03T07:18:07;100361.16;;;7.29;95.09
33506;BME280;19843;51.040;13.782;2023-02-03T07:20:35;100365.22;;;7.37;93.70
33506;BME280;19843;51.040;13.782;2023-02-03T07:23:02;100367.56;;;7.43;93.59
33506;BME280;19843;51.040;13.782;2023-02-03T07:25:30;100355.06;;;7.43;92.80
33506;BME280;19843;51.040;13.782;2023-02-03T07:27:57;100360.41;;;7.43;91.79
33506;BME280;19843;51.040;13.782;2023-02-03T07:30:26;100366.63;;;7.60;91.67
33506;BME280;19843;51.040;13.782;2023-02-03T07:32:54;100357.16;;;7.54;90.91
33506;BME280;19843;51.040;13.782;2023-02-03T07:35:22;100358.34;;;7.64;89.59
33506;BME280;19843;51.040;13.782;2023-02-03T07:37:50;100351.13;;;7.66;89.94
33506;BME280;19843;51.040;13.782;2023-02-03T07:40:18;100365.06;;;7.71;88.97
33506;BME280;19843;51.040;13.782;2023-02-03T07:42:47;100353.63;;;7.69;88.89
33506;BME280;19843;51.040;13.782;2023-02-03T07:45:15;100352.25;;;7.78;89.13
33506;BME280;19843;51.040;13.782;2023-02-03T07:47:44;100358.44;;;7.63;90.15
33506;BME280;19843;51.040;13.782;2023-02-03T07:50:12;100341.56;;;7.62;90.27
33506;BME280;19843;51.040;13.782;2023-02-03T07:52:39;100339.09;;;7.59;90.82
33506;BME280;19843;51.040;13.782;2023-02-03T07:55:07;100338.56;;;7.52;90.99
33506;BME280;19843;51.040;13.782;2023-02-03T07:57:35;100355.25;;;7.56;92.19
33506;BME280;19843;51.040;13.782;2023-02-03T08:00:03;100344.34;;;7.45;93.52
33506;BME280;19843;51.040;13.782;2023-02-03T08:02:31;100340.97;;;7.41;94.73
33506;BME280;19843;51.040;13.782;2023-02-03T08:05:00;100368.38;;;7.27;95.42
33506;BME280;19843;51.040;13.782;2023-02-03T08:07:27;100344.06;;;7.34;95.51
33506;BME280;19843;51.040;13.782;2023-02-03T08:09:55;100328.53;;;7.24;96.66
33506;BME280;19843;51.040;13.782;2023-02-03T08:12:22;100340.84;;;7.27;97.75
33506;BME280;19843;51.040;13.782;2023-02-03T08:14:49;100324.16;;;7.23;96.87
33506;BME280;19843;51.040;13.782;2023-02-03T08:17:17;100319.00;;;7.20;95.56
33506;BME280;19843;51.040;13.782;2023-02-03T08:19:44;100327.78;;;7.38;95.56
33506;BME280;19843;51.040;13.782;2023-02-03T08:22:13;100325.97;;;7.23;96.86
33506;BME280;19843;51.040;13.782;2023-02-03T08:24:42;100311.91;;;7.19;96.95
33506;BME280;19843;51.040;13.782;2023-02-03T08:27:11;100317.97;;;7.23;95.04
33506;BME280;19843;51.040;13.782;2023-02-03T08:29:39;100312.38;;;7.27;96.30
33506;BME280;19843;51.040;13.782;2023-02-03T08:32:08;100313.56;;;7.38;95.54
33506;BME280;19843;51.040;13.782;2023-02-03T08:34:36;100307.22;;;7.40;95.34
33506;BME280;19843;51.040;13.782;2023-02-03T08:37:04;100317.13;;;7.38;94.98
33506;BME280;19843;51.040;13.782;2023-02-03T08:39:33;100311.53;;;7.43;94.87
33506;BME280;19843;51.040;13.782;2023-02-03T08:42:01;100303.88;;;7.37;94.76
33506;BME280;19843;51.040;13.782;2023-02-03T08:44:29;100307.31;;;7.39;94.72
33506;BME280;19843;51.040;13.782;2023-02-03T08:46:57;100298.53;;;7.52;94.36
33506;BME280;19843;51.040;13.782;2023-02-03T08:49:24;100299.41;;;7.53;94.91
33506;BME280;19843;51.040;13.782;2023-02-03T08:51:52;100293.13;;;7.54;95.50
33506;BME280;19843;51.040;13.782;2023-02-03T08:54:20;100298.72;;;7.49;95.79
33506;BME280;19843;51.040;13.782;2023-02-03T08:56:49;100299.13;;;7.42;96.28
33506;BME280;19843;51.040;13.782;2023-02-03T08:59:16;100299.19;;;7.40;96.00
33506;BME280;19843;51.040;13.782;2023-02-03T09:01:44;100306.88;;;7.30;96.63
33506;BME280;19843;51.040;13.782;2023-02-03T09:04:14;100284.50;;;7.33;96.60
33506;BME280;19843;51.040;13.782;2023-02-03T09:06:44;100284.34;;;7.36;97.33
33506;BME280;19843;51.040;13.782;2023-02-03T09:09:12;100289.50;;;7.39;96.87
33506;BME280;19843;51.040;13.782;2023-02-03T09:11:40;100277.00;;;7.40;96.69
33506;BME280;19843;51.040;13.782;2023-02-03T09:14:08;100270.75;;;7.41;96.20
33506;BME280;19843;51.040;13.782;2023-02-03T09:16:36;100273.16;;;7.45;96.26
33506;BME280;19843;51.040;13.782;2023-02-03T09:19:04;100259.56;;;7.34;97.58
33506;BME280;19843;51.040;13.782;2023-02-03T09:21:32;100260.47;;;7.49;97.53
33506;BME280;19843;51.040;13.782;2023-02-03T09:24:05;100255.25;;;7.31;97.90
33506;BME280;19843;51.040;13.782;2023-02-03T09:26:32;100257.47;;;7.39;98.59
33506;BME280;19843;51.040;13.782;2023-02-03T09:28:59;100229.63;;;7.29;98.55
33506;BME280;19843;51.040;13.782;2023-02-03T09:31:28;100225.91;;;7.31;97.88
33506;BME280;19843;51.040;13.782;2023-02-03T09:33:57;100237.97;;;7.39;97.67
33506;BME280;19843;51.040;13.782;2023-02-03T09:36:24;100238.56;;;7.44;97.67
33506;BME280;19843;51.040;13.782;2023-02-03T09:38:52;100218.59;;;7.35;97.91
33506;BME280;19843;51.040;13.782;2023-02-03T09:41:22;100220.38;;;7.50;97.05
33506;BME280;19843;51.040;13.782;2023-02-03T09:43:55;100200.31;;;7.59;96.47
33506;BME280;19843;51.040;13.782;2023-02-03T09:46:27;100199.81;;;7.52;96.66
33506;BME280;19843;51.040;13.782;2023-02-03T09:48:58;100193.63;;;7.52;97.27
33506;BME280;19843;51.040;13.782;2023-02-03T09:51:26;100177.19;;;7.44;98.36
33506;BME280;19843;51.040;13.782;2023-02-03T09:53:56;100171.50;;;7.50;98.81
33506;BME280;19843;51.040;13.782;2023-02-03T09:56:25;100157.34;;;7.34;99.42
33506;BME280;19843;51.040;13.782;2023-02-03T09:58:55;100169.78;;;7.49;99.66
33506;BME280;19843;51.040;13.782;2023-02-03T10:01:22;100154.66;;;7.49;99.04
33506;BME280;19843;51.040;13.782;2023-02-03T10:03:53;100150.09;;;7.36;99.73
33506;BME280;19843;51.040;13.782;2023-02-03T10:06:29;100141.91;;;7.55;99.72
33506;BME280;19843;51.040;13.782;2023-02-03T10:09:05;100145.38;;;7.41;100.00
33506;BME280;19843;51.040;13.782;2023-02-03T10:11:40;100137.00;;;7.47;98.61
33506;BME280;19843;51.040;13.782;2023-02-03T10:14:19;100133.38;;;7.48;98.12
33506;BME280;19843;51.040;13.782;2023-02-03T10:16:52;100120.56;;;7.55;98.48
33506;BME280;19843;51.040;13.782;2023-02-03T10:19:26;100124.66;;;7.60;98.79
33506;BME280;19843;51.040;13.782;2023-02-03T10:22:00;100121.59;;;7.52;99.97
33506;BME280;19843;51.040;13.782;2023-02-03T10:24:31;100104.03;;;7.48;99.69
33506;BME280;19843;51.040;13.782;2023-02-03T10:27:01;100106.25;;;7.56;100.00
33506;BME280;19843;51.040;13.782;2023-02-03T10:29:29;100084.41;;;7.49;100.00
33506;BME280;19843;51.040;13.782;2023-02-03T10:31:58;100099.47;;;7.50;99.96
33506;BME280;19843;51.040;13.782;2023-02-03T10:34:25;100078.91;;;7.52;99.90
33506;BME280;19843;51.040;13.782;2023-02-03T10:36:53;100095.06;;;7.49;100.00
33506;BME280;19843;51.040;13.782;2023-02-03T10:42:08;100078.56;;;7.42;100.00
33506;BME280;19843;51.040;13.782;2023-02-03T10:44:38;100057.66;;;7.50;100.00
33506;BME280;19843;51.040;13.782;2023-02-03T10:47:12;100070.72;;;7.55;100.00
33506;BME280;19843;51.040;13.782;2023-02-03T10:49:41;100066.91;;;7.59;100.00
33506;BME280;19843;51.040;13.782;2023-02-03T10:52:22;100064.69;;;7.51;100.00
33506;BME280;19843;51.040;13.782;2023-02-03T10:54:50;100051.25;;;7.53;100.00
33506;BME280;19843;51.040;13.782;2023-02-03T10:57:19;100053.75;;;7.56;100.00
33506;BME280;19843;51.040;13.782;2023-02-03T10:59:47;100035.94;;;7.57;100.00
33506;BME280;19843;51.040;13.782;2023-02-03T11:02:21;100034.78;;;7.61;99.75
33506;BME280;19843;51.040;13.782;2023-02-03T11:07:32;100024.72;;;7.66;98.96
33506;BME280;19843;51.040;13.782;2023-02-03T11:10:00;100016.22;;;7.73;98.40
33506;BME280;19843;51.040;13.782;2023-02-03T11:12:28;100019.56;;;7.91;97.68
33506;BME280;19843;51.040;13.782;2023-02-03T11:14:56;100023.94;;;7.78;97.25
33506;BME280;19843;51.040;13.782;2023-02-03T11:17:31;100022.88;;;7.81;97.63
33506;BME280;19843;51.040;13.782;2023-02-03T11:20:02;100025.97;;;7.89;96.96
33506;BME280;19843;51.040;13.782;2023-02-03T11:22:33;100028.81;;;8.00;97.75
33506;BME280;19843;51.040;13.782;2023-02-03T11:25:02;100021.09;;;7.95;96.80
33506;BME280;19843;51.040;13.782;2023-02-03T11:27:31;100012.41;;;7.92;98.45
33506;BME280;19843;51.040;13.782;2023-02-03T11:30:07;100018.34;;;7.97;98.38
33506;BME280;19843;51.040;13.782;2023-02-03T11:32:36;99999.63;;;7.83;100.00
33506;BME280;19843;51.040;13.782;2023-02-03T11:35:12;100012.41;;;7.78;100.00
33506;BME280;19843;51.040;13.782;2023-02-03T11:37:41;100017.06;;;7.74;100.00
33506;BME280;19843;51.040;13.782;2023-02-03T11:43:02;100027.09;;;7.85;100.00
33506;BME280;19843;51.040;13.782;2023-02-03T11:45:33;100017.47;;;7.82;100.00
33506;BME280;19843;51.040;13.782;2023-02-03T11:48:05;100012.63;;;7.89;100.00
33506;BME280;19843;51.040;13.782;2023-02-03T11:50:39;100003.94;;;7.85;100.00
33506;BME280;19843;51.040;13.782;2023-02-03T11:53:13;100003.56;;;7.91;100.00
33506;BME280;19843;51.040;13.782;2023-02-03T11:55:52;99993.63;;;7.93;100.00
33506;BME280;19843;51.040;13.782;2023-02-03T11:58:32;100003.56;;;7.91;100.00
33506;BME280;19843;51.040;13.782;2023-02-03T12:01:04;99985.44;;;7.97;100.00
33506;BME280;19843;51.040;13.782;2023-02-03T12:03:43;99946.63;;;7.91;100.00
33506;BME280;19843;51.040;13.782;2023-02-03T12:06:18;99920.28;;;7.99;100.00
33506;BME280;19843;51.040;13.782;2023-02-03T12:08:54;99916.84;;;8.11;100.00
33506;BME280;19843;51.040;13.782;2023-02-03T12:11:27;99885.72;;;8.25;100.00
33506;BME280;19843;51.040;13.782;2023-02-03T12:14:03;99875.53;;;8.17;100.00
33506;BME280;19843;51.040;13.782;2023-02-03T12:16:54;99888.72;;;8.33;100.00
33506;BME280;19843;51.040;13.782;2023-02-03T12:19:27;99894.28;;;8.30;100.00
33506;BME280;19843;51.040;13.782;2023-02-03T12:21:59;99915.97;;;8.25;100.00
33506;BME280;19843;51.040;13.782;2023-02-03T12:24:33;99922.53;;;8.20;100.00
33506;BME280;19843;51.040;13.782;2023-02-03T12:27:07;99929.63;;;8.21;100.00
33506;BME280;19843;51.040;13.782;2023-02-03T12:29:40;99929.00;;;8.30;100.00
33506;BME280;19843;51.040;13.782;2023-02-03T12:32:11;99923.97;;;8.25;99.97
33506;BME280;19843;51.040;13.782;2023-02-03T12:34:42;99905.06;;;8.28;99.01
33506;BME280;19843;51.040;13.782;2023-02-03T12:37:14;99924.22;;;8.35;98.75
33506;BME280;19843;51.040;13.782;2023-02-03T12:39:43;99926.59;;;8.40;98.15
33506;BME280;19843;51.040;13.782;2023-02-03T12:42:13;99922.88;;;8.42;97.64
33506;BME280;19843;51.040;13.782;2023-02-03T12:44:44;99920.22;;;8.42;96.94
33506;BME280;19843;51.040;13.782;2023-02-03T12:47:15;99909.88;;;8.50;96.82
33506;BME280;19843;51.040;13.782;2023-02-03T12:49:47;99906.81;;;8.56;95.77
33506;BME280;19843;51.040;13.782;2023-02-03T12:52:19;99904.91;;;8.59;96.27
33506;BME280;19843;51.040;13.782;2023-02-03T12:54:48;99874.44;;;8.74;92.87
33506;BME280;19843;51.040;13.782;2023-02-03T12:57:19;99895.97;;;8.72;93.06
33506;BME280;19843;51.040;13.782;2023-02-03T12:59:55;99888.78;;;8.73;93.42
33506;BME280;19843;51.040;13.782;2023-02-03T13:02:25;99893.38;;;8.71;94.44
33506;BME280;19843;51.040;13.782;2023-02-03T13:04:53;99899.03;;;8.66;94.66
33506;BME280;19843;51.040;13.782;2023-02-03T13:07:23;99925.00;;;8.64;95.25
33506;BME280;19843;51.040;13.782;2023-02-03T13:09:53;99928.19;;;8.56;96.52